createdAt,value
2018-12-23T00:00:35.613Z,0
2018-12-23T00:01:37.746Z,0
2018-12-23T00:02:39.882Z,0
2018-12-23T00:03:42.027Z,0
2018-12-23T00:04:44.196Z,0
2018-12-23T00:05:46.326Z,0
2018-12-23T00:06:48.452Z,0
2018-12-23T00:07:50.637Z,0
2018-12-23T00:08:53.974Z,0
2018-12-23T00:09:56.110Z,0
2018-12-23T00:10:58.243Z,0
2018-12-23T00:12:00.520Z,0
2018-12-23T00:13:02.678Z,0
2018-12-23T00:14:05.216Z,0
2018-12-23T00:15:07.348Z,0
2018-12-23T00:16:09.395Z,0
2018-12-23T00:17:11.710Z,0
2018-12-23T00:18:13.759Z,0
2018-12-23T00:19:15.804Z,0
2018-12-23T00:20:17.835Z,0
2018-12-23T00:21:19.895Z,0
2018-12-23T00:22:21.945Z,0
2018-12-23T00:23:24.005Z,0
2018-12-23T00:24:26.090Z,0
2018-12-23T00:25:28.152Z,0
2018-12-23T00:26:30.205Z,0
2018-12-23T00:27:32.265Z,0
2018-12-23T00:28:34.307Z,0
2018-12-23T00:29:36.382Z,0
2018-12-23T00:30:38.419Z,0
2018-12-23T00:31:40.470Z,0
2018-12-23T00:32:42.640Z,0
2018-12-23T00:33:44.987Z,0
2018-12-23T00:34:47.050Z,0
2018-12-23T00:35:49.096Z,0
2018-12-23T00:36:51.169Z,0
2018-12-23T00:37:53.235Z,0
2018-12-23T00:38:55.291Z,0
2018-12-23T00:39:57.616Z,0
2018-12-23T00:40:59.656Z,0
2018-12-23T00:42:01.698Z,0
2018-12-23T00:43:03.749Z,0
2018-12-23T00:44:05.804Z,0
2018-12-23T00:45:07.832Z,0
2018-12-23T00:46:09.896Z,0
2018-12-23T00:47:12.004Z,0
2018-12-23T00:48:14.203Z,0
2018-12-23T00:49:16.266Z,0
2018-12-23T00:50:18.310Z,0
2018-12-23T00:51:20.364Z,0
2018-12-23T00:52:22.410Z,0
2018-12-23T00:53:24.453Z,0
2018-12-23T00:54:26.529Z,0
2018-12-23T00:55:28.582Z,0
2018-12-23T00:56:30.634Z,0
2018-12-23T00:57:32.709Z,0
2018-12-23T00:58:34.767Z,0
2018-12-23T00:59:36.952Z,0
2018-12-23T01:00:39.398Z,0
2018-12-23T01:01:41.435Z,0
2018-12-23T01:02:43.496Z,0
2018-12-23T01:03:45.560Z,0
2018-12-23T01:04:47.632Z,0
2018-12-23T01:05:49.954Z,0
2018-12-23T01:06:52.018Z,0
2018-12-23T01:07:54.074Z,0
2018-12-23T01:08:56.134Z,0
2018-12-23T01:09:58.206Z,0
2018-12-23T01:11:00.243Z,0
2018-12-23T01:12:02.608Z,0
2018-12-23T01:13:04.661Z,0
2018-12-23T01:14:07.086Z,0
2018-12-23T01:15:09.544Z,0
2018-12-23T01:16:11.660Z,0
2018-12-23T01:17:13.824Z,0
2018-12-23T01:18:15.868Z,0
2018-12-23T01:19:17.935Z,0
2018-12-23T01:20:20.367Z,0
2018-12-23T01:21:22.400Z,0
2018-12-23T01:22:24.434Z,0
2018-12-23T01:23:26.867Z,0
2018-12-23T01:24:28.935Z,0
2018-12-23T01:25:31.090Z,0
2018-12-23T01:26:33.148Z,0
2018-12-23T01:27:35.202Z,0
2018-12-23T01:28:37.241Z,0
2018-12-23T01:29:39.556Z,0
2018-12-23T01:30:41.609Z,0
2018-12-23T01:31:43.738Z,0
2018-12-23T01:32:45.800Z,0
2018-12-23T01:33:47.835Z,0
2018-12-23T01:34:49.869Z,0
2018-12-23T01:35:51.906Z,0
2018-12-23T01:36:54.661Z,0
2018-12-23T01:37:56.689Z,0
2018-12-23T01:38:58.814Z,0
2018-12-23T01:40:00.899Z,0
2018-12-23T01:41:04.418Z,0
2018-12-23T01:42:06.597Z,0
2018-12-23T01:43:08.930Z,0
2018-12-23T01:44:10.990Z,0
2018-12-23T01:45:13.045Z,0
2018-12-23T01:46:15.095Z,0
2018-12-23T01:47:17.436Z,0
2018-12-23T01:48:19.485Z,0
2018-12-23T01:49:21.555Z,0
2018-12-23T01:50:23.593Z,0
2018-12-23T01:51:25.664Z,0
2018-12-23T01:52:27.747Z,0
2018-12-23T01:53:30.072Z,0
2018-12-23T01:54:32.130Z,0
2018-12-23T01:55:34.174Z,0
2018-12-23T01:56:36.614Z,0
2018-12-23T01:57:38.973Z,0
2018-12-23T01:58:41.082Z,0
2018-12-23T01:59:43.141Z,0
2018-12-23T02:00:45.180Z,0
2018-12-23T02:01:47.230Z,0
2018-12-23T02:02:49.283Z,0
2018-12-23T02:03:51.648Z,0
2018-12-23T02:04:53.680Z,0
2018-12-23T02:05:55.811Z,0
2018-12-23T02:06:57.861Z,0
2018-12-23T02:07:59.909Z,0
2018-12-23T02:09:01.980Z,0
2018-12-23T02:10:04.039Z,0
2018-12-23T02:11:06.088Z,0
2018-12-23T02:12:08.143Z,0
2018-12-23T02:13:10.211Z,0
2018-12-23T02:14:12.243Z,0
2018-12-23T02:15:14.285Z,0
2018-12-23T02:16:16.347Z,0
2018-12-23T02:17:18.684Z,0
2018-12-23T02:18:21.039Z,0
2018-12-23T02:19:23.141Z,0
2018-12-23T02:20:25.203Z,0
2018-12-23T02:21:27.250Z,0
2018-12-23T02:22:29.315Z,0
2018-12-23T02:23:31.373Z,0
2018-12-23T02:24:33.423Z,0
2018-12-23T02:25:35.507Z,0
2018-12-23T02:26:37.560Z,0
2018-12-23T02:27:39.589Z,0
2018-12-23T02:28:41.639Z,0
2018-12-23T02:29:43.700Z,0
2018-12-23T02:30:45.769Z,0
2018-12-23T02:31:47.842Z,0
2018-12-23T02:32:49.994Z,0
2018-12-23T02:33:52.042Z,0
2018-12-23T02:34:54.100Z,0
2018-12-23T02:35:56.171Z,0
2018-12-23T02:36:58.218Z,0
2018-12-23T02:38:00.290Z,0
2018-12-23T02:39:02.450Z,0
2018-12-23T02:40:04.630Z,0
2018-12-23T02:41:06.690Z,0
2018-12-23T02:42:09.456Z,0
2018-12-23T02:43:11.531Z,0
2018-12-23T02:44:13.880Z,0
2018-12-23T02:45:15.967Z,0
2018-12-23T02:46:18.027Z,0
2018-12-23T02:47:20.090Z,0
2018-12-23T02:48:22.207Z,0
2018-12-23T02:49:24.270Z,0
2018-12-23T02:50:26.778Z,0
2018-12-23T02:51:28.833Z,0
2018-12-23T02:52:30.882Z,0
2018-12-23T02:53:32.919Z,0
2018-12-23T02:54:34.970Z,0
2018-12-23T02:55:37.014Z,0
2018-12-23T02:56:39.372Z,0
2018-12-23T02:57:41.428Z,0
2018-12-23T02:58:43.484Z,0
2018-12-23T02:59:45.516Z,0
2018-12-23T03:00:47.829Z,0
2018-12-23T03:01:50.161Z,0
2018-12-23T03:02:52.537Z,0
2018-12-23T03:03:54.621Z,0
2018-12-23T03:04:56.695Z,0
2018-12-23T03:06:05.640Z,0
2018-12-23T03:07:08.437Z,0
2018-12-23T03:08:10.879Z,0
2018-12-23T03:09:12.953Z,0
2018-12-23T03:10:14.994Z,0
2018-12-23T03:11:17.059Z,0
2018-12-23T03:12:19.455Z,0
2018-12-23T03:13:22.087Z,0
2018-12-23T03:14:24.138Z,0
2018-12-23T03:15:26.685Z,0
2018-12-23T03:16:29.027Z,0
2018-12-23T03:17:31.081Z,0
2018-12-23T03:18:33.548Z,0
2018-12-23T03:19:35.984Z,0
2018-12-23T03:20:38.076Z,0
2018-12-23T03:21:40.109Z,0
2018-12-23T03:22:42.469Z,0
2018-12-23T03:23:44.802Z,0
2018-12-23T03:24:47.134Z,0
2018-12-23T03:25:49.339Z,0
2018-12-23T03:26:51.372Z,0
2018-12-23T03:27:53.495Z,0
2018-12-23T03:28:55.566Z,0
2018-12-23T03:29:57.623Z,0
2018-12-23T03:30:59.760Z,0
2018-12-23T03:32:02.635Z,0
2018-12-23T03:33:05.035Z,0
2018-12-23T03:34:07.886Z,0
2018-12-23T03:35:10.314Z,0
2018-12-23T03:36:15.059Z,0
2018-12-23T03:37:17.788Z,0
2018-12-23T03:38:20.140Z,0
2018-12-23T03:39:22.476Z,0
2018-12-23T03:40:24.540Z,0
2018-12-23T03:41:26.582Z,0
2018-12-23T03:42:28.743Z,0
2018-12-23T03:43:30.787Z,0
2018-12-23T03:44:32.850Z,0
2018-12-23T03:45:34.963Z,0
2018-12-23T03:46:37.006Z,0
2018-12-23T03:47:39.057Z,0
2018-12-23T03:48:41.525Z,0
2018-12-23T03:49:43.568Z,0
2018-12-23T03:50:45.660Z,0
2018-12-23T03:51:47.712Z,0
2018-12-23T03:52:49.755Z,0
2018-12-23T03:53:52.120Z,0
2018-12-23T03:54:54.438Z,0
2018-12-23T03:55:56.493Z,0
2018-12-23T03:56:58.924Z,0
2018-12-23T03:58:01.366Z,0
2018-12-23T03:59:03.701Z,0
2018-12-23T04:00:05.745Z,0
2018-12-23T04:01:08.490Z,0
2018-12-23T04:02:10.542Z,0
2018-12-23T04:03:13.292Z,0
2018-12-23T04:04:15.332Z,0
2018-12-23T04:05:17.653Z,0
2018-12-23T04:06:24.379Z,0
2018-12-23T04:07:27.053Z,0
2018-12-23T04:08:29.093Z,0
2018-12-23T04:09:31.419Z,0
2018-12-23T04:10:33.462Z,0
2018-12-23T04:11:35.512Z,0
2018-12-23T04:12:37.649Z,0
2018-12-23T04:13:40.101Z,0
2018-12-23T04:14:42.143Z,0
2018-12-23T04:15:44.499Z,0
2018-12-23T04:16:46.544Z,0
2018-12-23T04:17:48.597Z,0
2018-12-23T04:18:50.946Z,0
2018-12-23T04:19:53.297Z,0
2018-12-23T04:20:55.365Z,0
2018-12-23T04:21:57.415Z,0
2018-12-23T04:22:59.464Z,0
2018-12-23T04:24:01.794Z,0
2018-12-23T04:25:04.139Z,0
2018-12-23T04:26:06.485Z,0
2018-12-23T04:27:08.561Z,0
2018-12-23T04:28:10.614Z,0
2018-12-23T04:29:12.668Z,0
2018-12-23T04:30:14.776Z,0
2018-12-23T04:31:16.877Z,0
2018-12-23T04:32:19.217Z,0
2018-12-23T04:33:21.418Z,0
2018-12-23T04:34:24.058Z,0
2018-12-23T04:35:26.172Z,0
2018-12-23T04:36:33.925Z,0
2018-12-23T04:37:36.806Z,0
2018-12-23T04:38:39.167Z,0
2018-12-23T04:39:41.491Z,0
2018-12-23T04:40:43.549Z,0
2018-12-23T04:41:45.603Z,0
2018-12-23T04:42:47.707Z,0
2018-12-23T04:43:50.033Z,0
2018-12-23T04:44:52.078Z,0
2018-12-23T04:45:54.131Z,0
2018-12-23T04:46:56.179Z,0
2018-12-23T04:47:58.830Z,0
2018-12-23T04:49:00.868Z,0
2018-12-23T04:50:02.929Z,0
2018-12-23T04:51:05.307Z,0
2018-12-23T04:52:07.365Z,0
2018-12-23T04:53:09.999Z,0
2018-12-23T04:54:12.047Z,0
2018-12-23T04:55:14.369Z,0
2018-12-23T04:56:16.828Z,0
2018-12-23T04:57:19.196Z,0
2018-12-23T04:58:21.272Z,0
2018-12-23T04:59:24.026Z,0
2018-12-23T05:00:26.067Z,0
2018-12-23T05:01:28.127Z,0
2018-12-23T05:02:30.569Z,0
2018-12-23T05:03:42.271Z,0
2018-12-23T05:04:45.464Z,0
2018-12-23T05:05:47.789Z,0
2018-12-23T05:06:49.839Z,0
2018-12-23T05:07:51.888Z,0
2018-12-23T05:08:54.075Z,0
2018-12-23T05:09:56.108Z,0
2018-12-23T05:10:58.148Z,0
2018-12-23T05:12:00.215Z,0
2018-12-23T05:13:02.289Z,0
2018-12-23T05:14:04.616Z,0
2018-12-23T05:15:06.964Z,0
2018-12-23T05:16:09.291Z,0
2018-12-23T05:17:11.339Z,0
2018-12-23T05:18:13.387Z,0
2018-12-23T05:19:15.409Z,0
2018-12-23T05:20:17.438Z,0
2018-12-23T05:21:19.477Z,0
2018-12-23T05:22:21.536Z,0
2018-12-23T05:23:23.587Z,0
2018-12-23T05:24:25.613Z,0
2018-12-23T05:25:27.951Z,0
2018-12-23T05:26:29.991Z,0
2018-12-23T05:27:32.031Z,0
2018-12-23T05:28:34.081Z,0
2018-12-23T05:29:36.129Z,0
2018-12-23T05:30:38.254Z,0
2018-12-23T05:31:40.310Z,0
2018-12-23T05:32:42.359Z,0
2018-12-23T05:33:44.425Z,0
2018-12-23T05:34:46.764Z,0
2018-12-23T05:35:49.102Z,0
2018-12-23T05:36:52.492Z,0
2018-12-23T05:37:54.835Z,0
2018-12-23T05:38:57.553Z,0
2018-12-23T05:39:59.704Z,0
2018-12-23T05:41:01.811Z,0
2018-12-23T05:42:03.883Z,0
2018-12-23T05:43:06.238Z,0
2018-12-23T05:44:08.303Z,0
2018-12-23T05:45:10.386Z,0
2018-12-23T05:46:12.734Z,0
2018-12-23T05:47:14.803Z,0
2018-12-23T05:48:16.860Z,0
2018-12-23T05:49:19.197Z,0
2018-12-23T05:50:21.242Z,0
2018-12-23T05:51:23.296Z,0
2018-12-23T05:52:25.336Z,0
2018-12-23T05:53:27.370Z,0
2018-12-23T05:54:29.430Z,0
2018-12-23T05:55:31.757Z,0
2018-12-23T05:56:33.815Z,0
2018-12-23T05:57:35.892Z,0
2018-12-23T05:58:37.939Z,0
2018-12-23T05:59:39.979Z,0
2018-12-23T06:00:42.040Z,0
2018-12-23T06:01:44.058Z,0
2018-12-23T06:02:46.095Z,0
2018-12-23T06:03:48.160Z,0
2018-12-23T06:04:50.210Z,0
2018-12-23T06:05:52.241Z,0
2018-12-23T06:07:00.857Z,0
2018-12-23T06:08:03.172Z,0
2018-12-23T06:09:05.445Z,0
2018-12-23T06:10:07.862Z,0
2018-12-23T06:11:09.910Z,0
2018-12-23T06:12:11.966Z,0
2018-12-23T06:13:14.006Z,0
2018-12-23T06:14:16.070Z,0
2018-12-23T06:15:18.215Z,0
2018-12-23T06:16:20.296Z,0
2018-12-23T06:17:22.356Z,0
2018-12-23T06:18:24.805Z,0
2018-12-23T06:19:27.142Z,0
2018-12-23T06:20:29.753Z,0
2018-12-23T06:21:31.827Z,0
2018-12-23T06:22:34.196Z,0
2018-12-23T06:23:36.531Z,0
2018-12-23T06:24:38.862Z,0
2018-12-23T06:25:40.894Z,0
2018-12-23T06:26:42.952Z,0
2018-12-23T06:27:44.994Z,0
2018-12-23T06:28:47.038Z,0
2018-12-23T06:29:49.088Z,0
2018-12-23T06:30:51.153Z,0
2018-12-23T06:31:53.192Z,0
2018-12-23T06:32:55.278Z,0
2018-12-23T06:33:57.394Z,0
2018-12-23T06:34:59.713Z,0
2018-12-23T06:36:01.812Z,0
2018-12-23T06:37:09.881Z,0
2018-12-23T06:38:12.374Z,0
2018-12-23T06:39:14.705Z,0
2018-12-23T06:40:16.768Z,0
2018-12-23T06:41:18.798Z,0
2018-12-23T06:42:20.852Z,0
2018-12-23T06:43:22.899Z,0
2018-12-23T06:44:24.952Z,0
2018-12-23T06:45:27.378Z,0
2018-12-23T06:46:29.418Z,0
2018-12-23T06:47:31.477Z,0
2018-12-23T06:48:35.531Z,0
2018-12-23T06:49:37.716Z,0
2018-12-23T06:50:39.761Z,0
2018-12-23T06:51:42.385Z,0
2018-12-23T06:52:44.423Z,0
2018-12-23T06:53:46.481Z,0
2018-12-23T06:54:48.530Z,4
2018-12-23T06:55:52.692Z,4
2018-12-23T06:56:54.742Z,0
2018-12-23T06:57:56.779Z,0
2018-12-23T06:58:58.834Z,4
2018-12-23T07:00:00.884Z,8
2018-12-23T07:01:02.950Z,4
2018-12-23T07:02:05.027Z,8
2018-12-23T07:03:07.097Z,8
2018-12-23T07:04:09.427Z,4
2018-12-23T07:05:11.478Z,4
2018-12-23T07:06:13.632Z,8
2018-12-23T07:07:18.671Z,8
2018-12-23T07:08:21.646Z,8
2018-12-23T07:09:23.692Z,12
2018-12-23T07:10:25.745Z,8
2018-12-23T07:11:27.803Z,8
2018-12-23T07:12:29.853Z,12
2018-12-23T07:13:31.932Z,12
2018-12-23T07:14:34.041Z,12
2018-12-23T07:15:36.093Z,16
2018-12-23T07:16:38.427Z,24
2018-12-23T07:17:40.469Z,24
2018-12-23T07:18:42.521Z,24
2018-12-23T07:19:44.878Z,24
2018-12-23T07:20:46.963Z,36
2018-12-23T07:21:49.026Z,44
2018-12-23T07:22:51.070Z,44
2018-12-23T07:23:53.115Z,56
2018-12-23T07:24:55.172Z,56
2018-12-23T07:25:57.528Z,68
2018-12-23T07:26:59.595Z,84
2018-12-23T07:28:01.652Z,132
2018-12-23T07:29:03.700Z,156
2018-12-23T07:30:05.744Z,164
2018-12-23T07:31:08.179Z,160
2018-12-23T07:32:10.611Z,144
2018-12-23T07:33:12.668Z,160
2018-12-23T07:34:14.999Z,152
2018-12-23T07:35:17.039Z,164
2018-12-23T07:36:19.096Z,208
2018-12-23T07:37:27.371Z,260
2018-12-23T07:38:29.876Z,328
2018-12-23T07:39:31.913Z,388
2018-12-23T07:40:33.975Z,432
2018-12-23T07:41:36.686Z,480
2018-12-23T07:42:38.731Z,528
2018-12-23T07:43:40.769Z,516
2018-12-23T07:44:42.829Z,500
2018-12-23T07:45:44.888Z,516
2018-12-23T07:46:46.939Z,548
2018-12-23T07:47:49.270Z,592
2018-12-23T07:48:51.324Z,624
2018-12-23T07:49:53.364Z,660
2018-12-23T07:50:55.791Z,720
2018-12-23T07:51:57.843Z,784
2018-12-23T07:53:00.175Z,864
2018-12-23T07:54:02.212Z,972
2018-12-23T07:55:04.259Z,1060
2018-12-23T07:56:06.315Z,1132
2018-12-23T07:57:08.383Z,1160
2018-12-23T07:58:10.443Z,1192
2018-12-23T07:59:12.507Z,1260
2018-12-23T08:00:14.556Z,1304
2018-12-23T08:01:16.902Z,1336
2018-12-23T08:02:18.939Z,1444
2018-12-23T08:03:20.989Z,1540
2018-12-23T08:04:23.038Z,1620
2018-12-23T08:05:25.537Z,1712
2018-12-23T08:06:27.575Z,1792
2018-12-23T08:07:36.060Z,1868
2018-12-23T08:08:38.384Z,1952
2018-12-23T08:09:40.797Z,1964
2018-12-23T08:10:42.855Z,1884
2018-12-23T08:11:44.916Z,1764
2018-12-23T08:12:46.957Z,1704
2018-12-23T08:13:49.083Z,1696
2018-12-23T08:14:51.523Z,1700
2018-12-23T08:15:53.575Z,1708
2018-12-23T08:16:55.615Z,1768
2018-12-23T08:17:57.962Z,1816
2018-12-23T08:18:59.997Z,1740
2018-12-23T08:20:02.444Z,1620
2018-12-23T08:21:04.491Z,1516
2018-12-23T08:22:06.836Z,1528
2018-12-23T08:23:09.217Z,1568
2018-12-23T08:24:11.270Z,1424
2018-12-23T08:25:13.337Z,1532
2018-12-23T08:26:15.385Z,1592
2018-12-23T08:27:17.453Z,1720
2018-12-23T08:28:19.500Z,1872
2018-12-23T08:29:21.567Z,2016
2018-12-23T08:30:24.014Z,2224
2018-12-23T08:31:26.346Z,2092
2018-12-23T08:32:28.437Z,1856
2018-12-23T08:33:30.821Z,1684
2018-12-23T08:34:32.900Z,1608
2018-12-23T08:35:34.968Z,1660
2018-12-23T08:36:37.326Z,1688
2018-12-23T08:37:44.502Z,1420
2018-12-23T08:38:46.909Z,860
2018-12-23T08:39:48.958Z,644
2018-12-23T08:40:51.306Z,772
2018-12-23T08:41:53.348Z,1056
2018-12-23T08:42:55.434Z,680
2018-12-23T08:43:57.512Z,708
2018-12-23T08:44:59.558Z,716
2018-12-23T08:46:01.918Z,1236
2018-12-23T08:47:04.264Z,1724
2018-12-23T08:48:06.341Z,2064
2018-12-23T08:49:08.662Z,2652
2018-12-23T08:50:11.051Z,2940
2018-12-23T08:51:13.394Z,3156
2018-12-23T08:52:15.452Z,3712
2018-12-23T08:53:17.516Z,4072
2018-12-23T08:54:19.947Z,3904
2018-12-23T08:55:22.278Z,3264
2018-12-23T08:56:24.327Z,3112
2018-12-23T08:57:26.659Z,3564
2018-12-23T08:58:28.743Z,3372
2018-12-23T08:59:30.790Z,3876
2018-12-23T09:00:32.859Z,3552
2018-12-23T09:01:34.920Z,3512
2018-12-23T09:02:36.981Z,3776
2018-12-23T09:03:39.025Z,3916
2018-12-23T09:04:41.074Z,3896
2018-12-23T09:05:43.529Z,3644
2018-12-23T09:06:45.603Z,2968
2018-12-23T09:07:52.913Z,2556
2018-12-23T09:08:55.510Z,2252
2018-12-23T09:09:57.561Z,2004
2018-12-23T09:10:59.618Z,1892
2018-12-23T09:12:01.681Z,1860
2018-12-23T09:13:03.735Z,1772
2018-12-23T09:14:05.779Z,1672
2018-12-23T09:15:08.109Z,1816
2018-12-23T09:16:10.144Z,1928
2018-12-23T09:17:12.211Z,1552
2018-12-23T09:18:19.230Z,1976
2018-12-23T09:19:21.905Z,3344
2018-12-23T09:20:23.951Z,3888
2018-12-23T09:21:25.985Z,3268
2018-12-23T09:22:28.023Z,2912
2018-12-23T09:23:30.068Z,3796
2018-12-23T09:24:32.113Z,4556
2018-12-23T09:25:34.556Z,5228
2018-12-23T09:26:36.602Z,6096
2018-12-23T09:27:38.649Z,7164
2018-12-23T09:28:40.702Z,7968
2018-12-23T09:29:42.742Z,8200
2018-12-23T09:30:44.791Z,7828
2018-12-23T09:31:46.850Z,7964
2018-12-23T09:32:49.479Z,7832
2018-12-23T09:33:51.534Z,7572
2018-12-23T09:34:53.578Z,7448
2018-12-23T09:35:55.625Z,7032
2018-12-23T09:36:57.952Z,6660
2018-12-23T09:38:01.508Z,6000
2018-12-23T09:39:04.200Z,5512
2018-12-23T09:40:06.820Z,4908
2018-12-23T09:41:09.247Z,4144
2018-12-23T09:42:11.301Z,3564
2018-12-23T09:43:14.872Z,3464
2018-12-23T09:44:16.986Z,3332
2018-12-23T09:45:19.040Z,3444
2018-12-23T09:46:21.446Z,3844
2018-12-23T09:47:23.527Z,4148
2018-12-23T09:48:25.563Z,4576
2018-12-23T09:49:27.610Z,4692
2018-12-23T09:50:30.227Z,5252
2018-12-23T09:51:32.261Z,6164
2018-12-23T09:52:34.290Z,6848
2018-12-23T09:53:36.344Z,6372
2018-12-23T09:54:38.373Z,5224
2018-12-23T09:55:40.816Z,4308
2018-12-23T09:56:42.866Z,4900
2018-12-23T09:57:44.919Z,4088
2018-12-23T09:58:46.966Z,3392
2018-12-23T09:59:48.988Z,3404
2018-12-23T10:00:51.024Z,3332
2018-12-23T10:01:53.067Z,3288
2018-12-23T10:02:55.112Z,3052
2018-12-23T10:03:57.167Z,2712
2018-12-23T10:04:59.217Z,2436
2018-12-23T10:06:01.318Z,1948
2018-12-23T10:07:03.683Z,1896
2018-12-23T10:08:09.890Z,2012
2018-12-23T10:09:12.542Z,2236
2018-12-23T10:10:14.621Z,2516
2018-12-23T10:11:16.701Z,3344
2018-12-23T10:12:18.794Z,3232
2018-12-23T10:13:20.916Z,3404
2018-12-23T10:14:23.136Z,3008
2018-12-23T10:15:25.517Z,2776
2018-12-23T10:16:27.649Z,2904
2018-12-23T10:17:29.869Z,2852
2018-12-23T10:18:31.954Z,2548
2018-12-23T10:19:34.130Z,2448
2018-12-23T10:20:36.243Z,2336
2018-12-23T10:21:38.346Z,1824
2018-12-23T10:22:40.547Z,2196
2018-12-23T10:23:43.229Z,2960
2018-12-23T10:24:45.762Z,3772
2018-12-23T10:25:48.133Z,4624
2018-12-23T10:26:50.508Z,5508
2018-12-23T10:27:52.714Z,5144
2018-12-23T10:28:55.244Z,4552
2018-12-23T10:29:57.767Z,3716
2018-12-23T10:31:00.287Z,2756
2018-12-23T10:32:02.771Z,2180
2018-12-23T10:33:05.468Z,1944
2018-12-23T10:34:08.116Z,1780
2018-12-23T10:35:10.861Z,1728
2018-12-23T10:36:13.541Z,1764
2018-12-23T10:37:16.168Z,2072
2018-12-23T10:38:19.069Z,2720
2018-12-23T10:39:21.490Z,2740
2018-12-23T10:40:24.168Z,1676
2018-12-23T10:41:26.868Z,1436
2018-12-23T10:42:29.436Z,1620
2018-12-23T10:43:31.716Z,1936
2018-12-23T10:44:34.393Z,1876
2018-12-23T10:45:37.138Z,2196
2018-12-23T10:46:39.441Z,2032
2018-12-23T10:47:42.621Z,1808
2018-12-23T10:48:45.149Z,1620
2018-12-23T10:49:47.947Z,1520
2018-12-23T10:50:50.716Z,2100
2018-12-23T10:51:53.349Z,1928
2018-12-23T10:52:56.044Z,2004
2018-12-23T10:53:59.318Z,2740
2018-12-23T10:55:02.355Z,3940
2018-12-23T10:56:05.620Z,4824
2018-12-23T10:57:08.252Z,4764
2018-12-23T10:58:11.066Z,5592
2018-12-23T10:59:14.181Z,5380
2018-12-23T11:00:16.810Z,3980
2018-12-23T11:01:19.602Z,3092
2018-12-23T11:02:22.247Z,2420
2018-12-23T11:03:25.640Z,2436
2018-12-23T11:04:28.210Z,2664
2018-12-23T11:05:31.038Z,3320
2018-12-23T11:06:33.086Z,3988
2018-12-23T11:07:35.143Z,4448
2018-12-23T11:08:37.192Z,5304
2018-12-23T11:09:39.244Z,5940
2018-12-23T11:10:41.314Z,6332
2018-12-23T11:11:43.381Z,7484
2018-12-23T11:12:45.710Z,7108
2018-12-23T11:13:47.767Z,6000
2018-12-23T11:14:49.814Z,4576
2018-12-23T11:15:51.870Z,3944
2018-12-23T11:16:54.004Z,4412
2018-12-23T11:17:56.055Z,5796
2018-12-23T11:18:58.112Z,6868
2018-12-23T11:20:00.165Z,6976
2018-12-23T11:21:02.213Z,7040
2018-12-23T11:22:04.271Z,5376
2018-12-23T11:23:06.392Z,4284
2018-12-23T11:24:08.756Z,3952
2018-12-23T11:25:11.078Z,3720
2018-12-23T11:26:13.377Z,3532
2018-12-23T11:27:15.452Z,2844
2018-12-23T11:28:17.503Z,2916
2018-12-23T11:29:19.831Z,3072
2018-12-23T11:30:21.858Z,3644
2018-12-23T11:31:24.182Z,4188
2018-12-23T11:32:26.227Z,4816
2018-12-23T11:33:28.263Z,5240
2018-12-23T11:34:30.423Z,5160
2018-12-23T11:35:32.465Z,6400
2018-12-23T11:36:35.087Z,6588
2018-12-23T11:37:37.131Z,6360
2018-12-23T11:38:39.283Z,7948
2018-12-23T11:39:41.724Z,9264
2018-12-23T11:40:43.789Z,9924
2018-12-23T11:41:45.834Z,10060
2018-12-23T11:42:47.883Z,10112
2018-12-23T11:43:49.934Z,10064
2018-12-23T11:44:51.994Z,10024
2018-12-23T11:45:54.044Z,9668
2018-12-23T11:46:56.103Z,9288
2018-12-23T11:47:58.182Z,8756
2018-12-23T11:49:00.227Z,8400
2018-12-23T11:50:02.276Z,7832
2018-12-23T11:51:06.696Z,8280
2018-12-23T11:52:08.889Z,7964
2018-12-23T11:53:10.930Z,7672
2018-12-23T11:54:12.976Z,7556
2018-12-23T11:55:15.034Z,6784
2018-12-23T11:56:17.115Z,7104
2018-12-23T11:57:19.171Z,7424
2018-12-23T11:58:21.609Z,7292
2018-12-23T11:59:23.747Z,6836
2018-12-23T12:00:25.796Z,6096
2018-12-23T12:01:27.839Z,5852
2018-12-23T12:02:29.900Z,5484
2018-12-23T12:03:31.949Z,5656
2018-12-23T12:04:34.002Z,5936
2018-12-23T12:05:36.482Z,6084
2018-12-23T12:06:38.614Z,5856
2018-12-23T12:07:41.043Z,5632
2018-12-23T12:08:43.788Z,5088
2018-12-23T12:09:46.015Z,4616
2018-12-23T12:10:48.352Z,4068
2018-12-23T12:11:51.026Z,3480
2018-12-23T12:12:53.154Z,3540
2018-12-23T12:13:55.205Z,3368
2018-12-23T12:14:57.267Z,2972
2018-12-23T12:15:59.308Z,2564
2018-12-23T12:17:01.352Z,2940
2018-12-23T12:18:03.387Z,3116
2018-12-23T12:19:05.453Z,3584
2018-12-23T12:20:07.504Z,3900
2018-12-23T12:21:09.593Z,3364
2018-12-23T12:22:11.640Z,2840
2018-12-23T12:23:13.699Z,2664
2018-12-23T12:24:15.762Z,3032
2018-12-23T12:25:17.823Z,4080
2018-12-23T12:26:19.878Z,4704
2018-12-23T12:27:21.938Z,4540
2018-12-23T12:28:23.986Z,3760
2018-12-23T12:29:26.024Z,2904
2018-12-23T12:30:28.069Z,2400
2018-12-23T12:31:30.095Z,2296
2018-12-23T12:32:32.152Z,2396
2018-12-23T12:33:34.480Z,2472
2018-12-23T12:34:36.913Z,2372
2018-12-23T12:35:38.931Z,2228
2018-12-23T12:36:40.981Z,1740
2018-12-23T12:37:43.301Z,1480
2018-12-23T12:38:52.047Z,1488
2018-12-23T12:39:54.394Z,1536
2018-12-23T12:40:56.569Z,1288
2018-12-23T12:41:58.899Z,1096
2018-12-23T12:43:01.227Z,712
2018-12-23T12:44:03.648Z,620
2018-12-23T12:45:05.696Z,592
2018-12-23T12:46:08.033Z,724
2018-12-23T12:47:10.063Z,784
2018-12-23T12:48:12.179Z,1312
2018-12-23T12:49:14.210Z,1060
2018-12-23T12:50:16.256Z,928
2018-12-23T12:51:18.594Z,1120
2018-12-23T12:52:20.654Z,1524
2018-12-23T12:53:22.695Z,1984
2018-12-23T12:54:24.752Z,2136
2018-12-23T12:55:26.858Z,1752
2018-12-23T12:56:28.890Z,1292
2018-12-23T12:57:30.925Z,1564
2018-12-23T12:58:33.262Z,2108
2018-12-23T12:59:35.716Z,1816
2018-12-23T13:00:37.762Z,1724
2018-12-23T13:01:40.083Z,1484
2018-12-23T13:02:42.128Z,1204
2018-12-23T13:03:44.166Z,1108
2018-12-23T13:04:46.216Z,1392
2018-12-23T13:05:48.246Z,1400
2018-12-23T13:06:50.303Z,952
2018-12-23T13:07:52.350Z,968
2018-12-23T13:09:00.403Z,996
2018-12-23T13:10:02.779Z,980
2018-12-23T13:11:04.822Z,996
2018-12-23T13:12:06.962Z,1164
2018-12-23T13:13:09.020Z,936
2018-12-23T13:14:11.064Z,996
2018-12-23T13:15:13.107Z,856
2018-12-23T13:16:15.170Z,1136
2018-12-23T13:17:17.207Z,1000
2018-12-23T13:18:19.259Z,1080
2018-12-23T13:19:21.586Z,864
2018-12-23T13:20:23.642Z,952
2018-12-23T13:21:25.713Z,912
2018-12-23T13:22:27.761Z,800
2018-12-23T13:23:29.805Z,836
2018-12-23T13:24:31.850Z,948
2018-12-23T13:25:33.896Z,1140
2018-12-23T13:26:36.236Z,1196
2018-12-23T13:27:38.294Z,1116
2018-12-23T13:28:40.360Z,1104
2018-12-23T13:29:42.422Z,980
2018-12-23T13:30:44.469Z,1144
2018-12-23T13:31:46.528Z,1028
2018-12-23T13:32:48.585Z,936
2018-12-23T13:33:50.931Z,932
2018-12-23T13:34:52.960Z,932
2018-12-23T13:35:55.016Z,888
2018-12-23T13:36:57.058Z,812
2018-12-23T13:37:59.102Z,616
2018-12-23T13:39:08.765Z,572
2018-12-23T13:40:11.637Z,756
2018-12-23T13:41:13.684Z,1072
2018-12-23T13:42:15.734Z,1328
2018-12-23T13:43:17.770Z,1380
2018-12-23T13:44:19.821Z,1416
2018-12-23T13:45:21.849Z,1224
2018-12-23T13:46:23.871Z,1212
2018-12-23T13:47:25.922Z,1076
2018-12-23T13:48:27.976Z,1208
2018-12-23T13:49:30.018Z,1124
2018-12-23T13:50:32.061Z,880
2018-12-23T13:51:34.093Z,756
2018-12-23T13:52:36.143Z,648
2018-12-23T13:53:38.224Z,564
2018-12-23T13:54:40.275Z,524
2018-12-23T13:55:42.339Z,536
2018-12-23T13:56:44.391Z,432
2018-12-23T13:57:46.443Z,368
2018-12-23T13:58:48.610Z,440
2018-12-23T13:59:50.661Z,468
2018-12-23T14:00:53.000Z,436
2018-12-23T14:01:55.332Z,488
2018-12-23T14:02:57.526Z,520
2018-12-23T14:03:59.975Z,596
2018-12-23T14:05:02.429Z,608
2018-12-23T14:06:06.720Z,480
2018-12-23T14:07:12.189Z,508
2018-12-23T14:08:14.251Z,352
2018-12-23T14:09:17.328Z,296
2018-12-23T14:10:19.504Z,248
2018-12-23T14:11:21.561Z,212
2018-12-23T14:12:23.601Z,196
2018-12-23T14:13:25.653Z,176
2018-12-23T14:14:27.689Z,192
2018-12-23T14:15:29.749Z,180
2018-12-23T14:16:31.822Z,176
2018-12-23T14:17:33.893Z,144
2018-12-23T14:18:36.216Z,132
2018-12-23T14:19:38.555Z,152
2018-12-23T14:20:40.615Z,156
2018-12-23T14:21:42.957Z,160
2018-12-23T14:22:45.017Z,224
2018-12-23T14:23:47.094Z,256
2018-12-23T14:24:49.148Z,224
2018-12-23T14:25:51.208Z,180
2018-12-23T14:26:53.265Z,136
2018-12-23T14:27:55.302Z,108
2018-12-23T14:28:57.360Z,100
2018-12-23T14:29:59.421Z,84
2018-12-23T14:31:01.471Z,84
2018-12-23T14:32:03.617Z,88
2018-12-23T14:33:05.683Z,100
2018-12-23T14:34:07.741Z,100
2018-12-23T14:35:09.795Z,88
2018-12-23T14:36:11.839Z,76
2018-12-23T14:37:13.891Z,60